Time;durP1;ratioP1;P1;durP2;ratioP2;P2;SDS_P1;SDS_P2;PMS_P1;PMS_P2;Temp;Humidity;BMP_temperature;BMP_pressure;BME280_temperature;BME280_humidity;BME280_pressure;Samples;Min_cycle;Max_cycle;Signal;HPM_P1;HPM_P2
2023/07/01 00:01:22;;;;;;;5.50;4.50;;;19.80;83.80;;;;;;5032146;28;20059;-63
2023/07/01 00:03:48;;;;;;;6.68;4.40;;;19.80;83.80;;;;;;5031824;28;20037;-63
2023/07/01 00:06:14;;;;;;;5.85;4.93;;;19.80;83.80;;;;;;5033450;28;20042;-63
2023/07/01 00:08:40;;;;;;;5.68;4.07;;;19.80;84.10;;;;;;5034880;28;20079;-63
2023/07/01 00:11:07;;;;;;;5.05;4.25;;;19.80;83.80;;;;;;5028825;28;20544;-62
2023/07/01 00:13:33;;;;;;;5.22;4.38;;;19.80;83.80;;;;;;5033314;28;20547;-63
2023/07/01 00:15:58;;;;;;;4.97;4.38;;;19.70;83.70;;;;;;5033423;28;20559;-63
2023/07/01 00:18:24;;;;;;;5.85;4.10;;;19.70;83.70;;;;;;5032018;28;20341;-63
2023/07/01 00:20:50;;;;;;;6.10;4.30;;;19.70;83.80;;;;;;5032708;28;20029;-63
2023/07/01 00:23:16;;;;;;;5.38;4.10;;;19.70;83.80;;;;;;5032067;28;20037;-63
2023/07/01 00:25:41;;;;;;;5.95;4.18;;;19.70;83.80;;;;;;5030486;28;20029;-63
2023/07/01 00:28:07;;;;;;;4.28;3.88;;;19.60;83.70;;;;;;5035706;28;20041;-63
2023/07/01 00:30:32;;;;;;;4.93;3.85;;;19.60;83.80;;;;;;5031305;28;20028;-62
2023/07/01 00:32:59;;;;;;;5.80;3.85;;;19.60;83.90;;;;;;5035609;28;20501;-63
2023/07/01 00:35:25;;;;;;;4.90;4.30;;;19.50;84.00;;;;;;5035107;28;20102;-63
2023/07/01 00:37:51;;;;;;;5.97;3.75;;;19.50;84.00;;;;;;5035597;28;20040;-63
2023/07/01 00:40:16;;;;;;;4.75;3.72;;;19.50;84.20;;;;;;5034633;28;20136;-63
2023/07/01 00:42:43;;;;;;;4.68;3.58;;;19.40;84.30;;;;;;5036129;28;20403;-63
2023/07/01 00:45:09;;;;;;;4.50;3.80;;;19.40;84.30;;;;;;5035108;28;20240;-62
2023/07/01 00:47:34;;;;;;;3.60;3.17;;;19.40;84.30;;;;;;5036118;28;20509;-63
2023/07/01 00:50:01;;;;;;;5.15;3.90;;;19.40;84.30;;;;;;5035252;28;20026;-63
2023/07/01 00:52:26;;;;;;;5.22;3.92;;;19.40;84.30;;;;;;5033152;28;20052;-62
2023/07/01 00:54:52;;;;;;;5.13;3.83;;;19.40;84.40;;;;;;5032827;28;20479;-63
2023/07/01 00:57:18;;;;;;;4.85;3.75;;;19.40;84.30;;;;;;5035392;28;20481;-63
2023/07/01 00:59:43;;;;;;;5.95;3.80;;;19.40;84.50;;;;;;5032743;28;20464;-62
2023/07/01 01:02:44;;;;;;;5.88;3.90;;;19.40;84.30;;;;;;5027753;28;20065;-63
2023/07/01 01:05:15;;;;;;;4.15;3.50;;;19.40;85.00;;;;;;5029836;28;20044;-61
2023/07/01 01:07:43;;;;;;;5.47;3.80;;;19.40;84.50;;;;;;5033940;28;20034;-63
2023/07/01 01:10:13;;;;;;;5.80;3.60;;;19.30;84.20;;;;;;5035566;28;20038;-63
2023/07/01 01:12:42;;;;;;;4.03;3.60;;;19.30;84.40;;;;;;5034819;28;20037;-62
2023/07/01 01:15:08;;;;;;;4.70;3.85;;;19.30;84.50;;;;;;5030328;28;20053;-63
2023/07/01 01:17:37;;;;;;;5.00;3.50;;;19.20;84.40;;;;;;5027384;28;21110;-63
2023/07/01 01:20:16;;;;;;;4.65;3.63;;;19.20;84.60;;;;;;5029490;28;20032;-63
2023/07/01 01:23:15;;;;;;;6.78;3.95;;;19.20;84.80;;;;;;5029944;28;20453;-62
2023/07/01 01:25:47;;;;;;;4.43;3.45;;;19.20;85.40;;;;;;5026107;28;20025;-61
2023/07/01 01:28:13;;;;;;;4.57;3.55;;;19.20;84.70;;;;;;5031914;28;20575;-62
2023/07/01 01:30:39;;;;;;;4.60;3.33;;;19.20;84.70;;;;;;5033069;28;20074;-63
2023/07/01 01:33:06;;;;;;;5.50;3.78;;;19.20;84.60;;;;;;5034184;28;20696;-63
2023/07/01 01:35:31;;;;;;;4.70;3.70;;;19.20;84.80;;;;;;5033763;28;20037;-63
2023/07/01 01:38:16;;;;;;;5.97;3.83;;;19.20;84.90;;;;;;5033532;28;20505;-62
2023/07/01 01:40:57;;;;;;;7.57;3.58;;;19.20;85.50;;;;;;5035209;28;20079;-63
2023/07/01 01:43:41;;;;;;;7.43;3.47;;;19.20;85.20;;;;;;5034065;28;20053;-63
2023/07/01 01:46:08;;;;;;;3.92;3.20;;;19.20;85.30;;;;;;5034708;28;20041;-63
2023/07/01 01:48:35;;;;;;;4.18;3.45;;;19.20;84.80;;;;;;5031681;28;20037;-63
2023/07/01 01:51:02;;;;;;;6.28;3.47;;;19.10;84.80;;;;;;5032161;28;20176;-63
2023/07/01 01:53:28;;;;;;;4.20;3.50;;;19.10;84.80;;;;;;5032495;28;20073;-62
2023/07/01 01:55:54;;;;;;;3.95;3.50;;;19.10;84.80;;;;;;5031960;28;20147;-62
2023/07/01 01:58:20;;;;;;;5.15;3.10;;;19.10;84.80;;;;;;5031789;28;20453;-62
2023/07/01 02:00:47;;;;;;;6.13;3.78;;;19.10;84.70;;;;;;5030605;28;20033;-63
2023/07/01 02:03:13;;;;;;;6.15;3.25;;;19.10;84.80;;;;;;5032726;28;20069;-63
2023/07/01 02:05:38;;;;;;;7.60;3.42;;;19.10;84.90;;;;;;5031440;28;20059;-63
2023/07/01 02:08:04;;;;;;;3.45;3.15;;;19.00;84.80;;;;;;5029938;28;20029;-63
2023/07/01 02:10:32;;;;;;;4.47;3.20;;;19.10;84.80;;;;;;5028085;28;20037;-62
2023/07/01 02:12:58;;;;;;;3.50;3.20;;;19.10;84.80;;;;;;5031025;28;20513;-63
2023/07/01 02:15:23;;;;;;;3.88;3.35;;;19.00;84.60;;;;;;5030645;28;20120;-63
2023/07/01 02:17:49;;;;;;;3.50;3.20;;;19.00;84.60;;;;;;5032032;28;20046;-62
2023/07/01 02:20:14;;;;;;;5.45;3.05;;;19.00;84.60;;;;;;5027626;28;20504;-63
2023/07/01 02:22:40;;;;;;;5.30;3.22;;;19.00;84.90;;;;;;5029035;28;20060;-63
2023/07/01 02:25:06;;;;;;;5.63;3.17;;;19.00;85.00;;;;;;5031128;28;20072;-63
2023/07/01 02:27:32;;;;;;;3.30;2.75;;;18.90;84.90;;;;;;5028751;28;20041;-62
2023/07/01 02:29:58;;;;;;;4.53;3.42;;;19.00;85.00;;;;;;5032759;28;20033;-63
2023/07/01 02:32:24;;;;;;;3.75;3.00;;;18.90;85.20;;;;;;5031945;28;20494;-62
2023/07/01 02:34:50;;;;;;;4.75;3.15;;;18.90;85.00;;;;;;5032799;28;20487;-63
2023/07/01 02:37:16;;;;;;;4.18;3.17;;;19.00;85.00;;;;;;5031306;28;20053;-63
2023/07/01 02:39:42;;;;;;;4.00;3.17;;;19.00;85.00;;;;;;5031979;28;20113;-61
2023/07/01 02:42:08;;;;;;;6.78;3.30;;;19.00;85.00;;;;;;5032906;28;20038;-63
2023/07/01 02:44:33;;;;;;;4.07;2.83;;;19.00;85.00;;;;;;5032557;28;20041;-62
2023/07/01 02:46:59;;;;;;;4.82;2.90;;;19.00;85.00;;;;;;5031685;28;20034;-62
2023/07/01 02:49:25;;;;;;;3.50;2.72;;;19.00;85.00;;;;;;5032616;28;20445;-63
2023/07/01 02:51:50;;;;;;;4.13;2.95;;;19.00;84.90;;;;;;5032038;28;20060;-63
2023/07/01 02:54:16;;;;;;;5.30;2.97;;;19.00;85.00;;;;;;5030954;28;20140;-63
2023/07/01 02:56:42;;;;;;;3.33;3.03;;;19.00;84.90;;;;;;5030199;28;20044;-63
2023/07/01 02:59:07;;;;;;;3.75;2.67;;;19.00;84.80;;;;;;5031859;28;20312;-62
2023/07/01 03:01:33;;;;;;;4.05;3.15;;;18.90;84.60;;;;;;5034796;28;20032;-63
2023/07/01 03:03:58;;;;;;;3.58;3.00;;;18.90;84.70;;;;;;5034116;28;20021;-63
2023/07/01 03:06:25;;;;;;;4.03;3.03;;;18.90;84.60;;;;;;5034647;28;20505;-62
2023/07/01 03:08:50;;;;;;;5.97;3.30;;;18.90;84.70;;;;;;5035127;28;20102;-62
2023/07/01 03:11:16;;;;;;;4.38;2.95;;;18.80;84.70;;;;;;5029475;28;20315;-63
2023/07/01 03:13:42;;;;;;;3.35;2.80;;;18.80;84.80;;;;;;5032445;28;20029;-63
2023/07/01 03:16:08;;;;;;;4.22;2.95;;;18.80;84.90;;;;;;5031967;28;20260;-63
2023/07/01 03:18:34;;;;;;;5.03;3.00;;;18.80;85.00;;;;;;5033279;28;20507;-62
2023/07/01 03:21:00;;;;;;;5.03;2.70;;;18.70;84.90;;;;;;5033159;28;20033;-62
2023/07/01 03:23:29;;;;;;;3.55;2.83;;;18.70;85.00;;;;;;5032353;28;20684;-62
2023/07/01 03:25:56;;;;;;;4.82;3.40;;;18.70;85.20;;;;;;5033163;28;20091;-63
2023/07/01 03:28:22;;;;;;;4.97;2.63;;;18.70;85.00;;;;;;5034288;28;20060;-63
2023/07/01 03:30:47;;;;;;;3.20;2.78;;;18.70;85.20;;;;;;5033851;28;20076;-63
2023/07/01 03:33:13;;;;;;;4.57;2.80;;;18.70;85.20;;;;;;5032639;28;20125;-63
2023/07/01 03:35:39;;;;;;;6.03;2.97;;;18.70;85.20;;;;;;5034613;28;20067;-62
2023/07/01 03:38:05;;;;;;;3.75;3.20;;;18.70;86.20;;;;;;5035741;28;20472;-63
2023/07/01 03:40:31;;;;;;;3.00;2.70;;;18.70;85.30;;;;;;5032972;28;20132;-63
2023/07/01 03:42:56;;;;;;;3.83;3.00;;;18.70;85.30;;;;;;5031388;28;20511;-63
2023/07/01 03:45:22;;;;;;;3.17;2.88;;;18.70;85.30;;;;;;5033568;28;20040;-63
2023/07/01 03:47:48;;;;;;;3.28;2.47;;;18.60;85.20;;;;;;5030836;28;20037;-63
2023/07/01 03:50:14;;;;;;;4.07;2.90;;;18.60;85.20;;;;;;5032930;28;20041;-63
2023/07/01 03:52:41;;;;;;;3.33;3.03;;;18.60;85.20;;;;;;5032403;28;20504;-63
2023/07/01 03:55:08;;;;;;;4.65;2.90;;;18.60;85.20;;;;;;5035309;28;20130;-62
2023/07/01 03:57:35;;;;;;;3.90;3.20;;;18.60;85.20;;;;;;5034666;28;20493;-63
2023/07/01 04:00:08;;;;;;;3.05;2.58;;;18.60;85.20;;;;;;5035299;28;20048;-63
2023/07/01 04:02:37;;;;;;;4.63;2.88;;;18.60;85.20;;;;;;5031596;28;20056;-62
2023/07/01 04:05:09;;;;;;;4.03;2.70;;;18.60;86.00;;;;;;5033078;28;20412;-62
2023/07/01 04:07:46;;;;;;;5.45;2.67;;;18.60;85.20;;;;;;5032877;28;20061;-63
2023/07/01 04:10:12;;;;;;;6.93;2.85;;;18.60;85.20;;;;;;5032699;28;20033;-63
2023/07/01 04:12:38;;;;;;;3.97;3.08;;;18.60;85.20;;;;;;5029898;28;20465;-62
2023/07/01 04:15:09;;;;;;;3.60;2.88;;;18.50;85.10;;;;;;5032315;28;20120;-62
2023/07/01 04:17:36;;;;;;;3.22;2.92;;;18.50;85.10;;;;;;5031252;28;20475;-62
2023/07/01 04:20:03;;;;;;;4.68;2.97;;;18.50;85.10;;;;;;5032943;28;20056;-63
2023/07/01 04:22:29;;;;;;;4.95;2.63;;;18.50;85.10;;;;;;5031026;28;20140;-63
2023/07/01 04:24:54;;;;;;;5.88;3.30;;;18.50;85.00;;;;;;5033226;28;20132;-63
2023/07/01 04:27:20;;;;;;;4.13;2.90;;;18.50;85.10;;;;;;5030966;28;20094;-63
2023/07/01 04:29:46;;;;;;;4.35;2.90;;;18.50;85.00;;;;;;5034503;28;20588;-63
2023/07/01 04:32:11;;;;;;;5.05;2.95;;;18.50;85.20;;;;;;5034366;28;20084;-63
2023/07/01 04:34:37;;;;;;;6.78;3.13;;;18.50;85.20;;;;;;5036312;28;20061;-63
2023/07/01 04:37:02;;;;;;;4.97;3.00;;;18.40;85.20;;;;;;5035661;28;20032;-63
2023/07/01 04:39:29;;;;;;;3.60;3.13;;;18.40;85.30;;;;;;5035721;28;20339;-63
2023/07/01 04:41:54;;;;;;;3.63;3.15;;;18.40;85.50;;;;;;5036417;28;20037;-63
2023/07/01 04:44:23;;;;;;;3.53;3.20;;;18.50;85.70;;;;;;5035882;28;20034;-63
2023/07/01 04:46:52;;;;;;;4.95;3.35;;;18.40;85.60;;;;;;5033404;28;20449;-63
2023/07/01 04:49:17;;;;;;;5.63;3.42;;;18.40;85.80;;;;;;5035069;28;20040;-63
2023/07/01 04:51:43;;;;;;;5.00;3.25;;;18.50;85.90;;;;;;5033617;28;20040;-63
2023/07/01 04:54:08;;;;;;;4.55;3.47;;;18.50;86.00;;;;;;5033463;28;20041;-63
2023/07/01 04:56:35;;;;;;;3.75;3.10;;;18.50;86.10;;;;;;5031411;28;20069;-63
2023/07/01 04:59:01;;;;;;;5.72;3.58;;;18.50;86.20;;;;;;5031976;28;20046;-62
2023/07/01 05:01:27;;;;;;;4.43;3.72;;;18.50;86.20;;;;;;5031360;28;20048;-63
2023/07/01 05:03:52;;;;;;;5.45;3.97;;;18.60;86.20;;;;;;5032328;28;20041;-63
2023/07/01 05:06:18;;;;;;;4.45;4.05;;;18.60;86.20;;;;;;5030296;28;20033;-63
2023/07/01 05:08:45;;;;;;;4.53;4.07;;;18.60;86.10;;;;;;5030448;28;20064;-63
2023/07/01 05:11:10;;;;;;;4.32;3.92;;;18.60;86.00;;;;;;5029211;28;20090;-61
2023/07/01 05:13:36;;;;;;;4.53;3.72;;;18.60;86.00;;;;;;5031154;28;20041;-63
2023/07/01 05:16:01;;;;;;;5.43;3.90;;;18.60;86.10;;;;;;5029911;28;20390;-63
2023/07/01 05:18:27;;;;;;;5.60;4.00;;;18.70;86.20;;;;;;5032767;28;20516;-62
2023/07/01 05:20:52;;;;;;;4.22;3.63;;;18.70;86.40;;;;;;5031299;28;20033;-63
2023/07/01 05:23:18;;;;;;;5.32;4.05;;;18.60;86.40;;;;;;5029923;28;20037;-62
2023/07/01 05:25:44;;;;;;;6.25;4.05;;;18.70;86.40;;;;;;5032396;28;20445;-63
2023/07/01 05:28:09;;;;;;;4.72;4.28;;;18.70;86.50;;;;;;5032671;28;20048;-63
2023/07/01 05:30:35;;;;;;;5.07;4.22;;;18.70;86.50;;;;;;5030062;28;20402;-63
2023/07/01 05:33:00;;;;;;;5.05;4.43;;;18.80;86.40;;;;;;5032733;28;20444;-63
2023/07/01 05:35:26;;;;;;;4.20;3.80;;;18.70;86.20;;;;;;5033120;28;20057;-63
2023/07/01 05:37:52;;;;;;;6.32;4.60;;;18.70;86.30;;;;;;5032821;28;20043;-63
2023/07/01 05:40:18;;;;;;;10.27;4.50;;;18.80;86.40;;;;;;5029430;28;20037;-63
2023/07/01 05:42:45;;;;;;;6.07;4.20;;;18.80;86.50;;;;;;5034160;28;20076;-62
2023/07/01 05:45:11;;;;;;;5.72;4.78;;;18.80;86.60;;;;;;5033313;28;20090;-64
2023/07/01 05:47:37;;;;;;;7.70;4.78;;;18.90;86.70;;;;;;5033359;28;20138;-63
2023/07/01 05:50:03;;;;;;;5.30;4.80;;;18.90;86.70;;;;;;5034078;28;20381;-61
2023/07/01 05:52:28;;;;;;;6.43;4.88;;;18.90;86.60;;;;;;5030894;28;20029;-63
2023/07/01 05:54:54;;;;;;;6.03;5.13;;;19.00;86.40;;;;;;5028990;28;20044;-63
2023/07/01 05:57:19;;;;;;;5.32;4.65;;;19.10;86.50;;;;;;5030595;28;20568;-63
2023/07/01 05:59:45;;;;;;;5.40;4.80;;;19.10;86.20;;;;;;5031492;28;20030;-63
2023/07/01 06:02:10;;;;;;;5.32;4.82;;;19.10;86.00;;;;;;5033402;28;20029;-63
2023/07/01 06:04:36;;;;;;;6.53;5.10;;;19.10;86.00;;;;;;5033593;28;20121;-62
2023/07/01 06:07:02;;;;;;;6.10;4.90;;;19.20;86.00;;;;;;5033138;28;20039;-63
2023/07/01 06:09:27;;;;;;;6.47;5.32;;;19.20;85.90;;;;;;5034592;28;20029;-63
2023/07/01 06:11:53;;;;;;;6.38;4.88;;;19.20;85.70;;;;;;5029066;28;20039;-63
2023/07/01 06:14:18;;;;;;;5.32;4.70;;;19.20;85.60;;;;;;5031487;28;20073;-63
2023/07/01 06:16:44;;;;;;;7.45;4.57;;;19.20;85.60;;;;;;5030795;28;20040;-62
2023/07/01 06:19:10;;;;;;;5.32;4.57;;;19.30;85.70;;;;;;5028120;28;20144;-63
2023/07/01 06:21:35;;;;;;;6.72;4.57;;;19.30;85.60;;;;;;5019795;28;20495;-63
2023/07/01 06:24:01;;;;;;;5.97;4.43;;;19.30;85.60;;;;;;5006665;28;20472;-63
2023/07/01 06:26:26;;;;;;;5.22;4.72;;;19.30;85.50;;;;;;5006384;28;20041;-62
2023/07/01 06:28:52;;;;;;;5.15;4.65;;;19.40;85.40;;;;;;5019411;28;20494;-62
2023/07/01 06:31:18;;;;;;;5.53;4.43;;;19.50;85.30;;;;;;5023757;28;20036;-62
2023/07/01 06:33:45;;;;;;;6.75;4.28;;;19.50;85.20;;;;;;5024823;28;20044;-63
2023/07/01 06:36:12;;;;;;;5.00;4.05;;;19.50;85.30;;;;;;5014626;28;20148;-62
2023/07/01 06:38:38;;;;;;;5.88;4.28;;;19.60;85.20;;;;;;5019189;28;20485;-63
2023/07/01 06:41:04;;;;;;;6.05;4.57;;;19.70;84.80;;;;;;5026071;28;20042;-62
2023/07/01 06:43:29;;;;;;;5.75;4.60;;;19.70;84.80;;;;;;5024351;28;20672;-63
2023/07/01 06:45:55;;;;;;;4.32;3.92;;;19.70;84.80;;;;;;5026479;28;20034;-66
2023/07/01 06:48:21;;;;;;;5.00;4.50;;;19.80;84.80;;;;;;5023621;28;20570;-63
2023/07/01 06:50:46;;;;;;;5.60;4.15;;;19.80;85.00;;;;;;5021118;28;20045;-63
2023/07/01 06:53:12;;;;;;;4.55;4.15;;;19.90;84.80;;;;;;5018054;28;20044;-63
2023/07/01 06:55:37;;;;;;;4.93;4.05;;;20.00;85.30;;;;;;5022513;28;20032;-63
2023/07/01 06:58:03;;;;;;;4.65;3.83;;;20.10;84.10;;;;;;5020870;28;20451;-63
2023/07/01 07:00:30;;;;;;;5.13;3.92;;;20.10;83.90;;;;;;5021999;28;20129;-62
2023/07/01 07:02:56;;;;;;;4.28;3.88;;;20.20;83.40;;;;;;5014888;28;20117;-63
2023/07/01 07:05:22;;;;;;;5.13;4.43;;;20.20;82.90;;;;;;5023589;28;20175;-63
2023/07/01 07:07:47;;;;;;;3.95;3.65;;;20.30;82.90;;;;;;5027172;28;20500;-64
2023/07/01 07:10:13;;;;;;;4.72;3.60;;;20.30;83.10;;;;;;5016993;28;20064;-63
2023/07/01 07:12:39;;;;;;;3.92;3.63;;;20.30;82.30;;;;;;5021440;28;20447;-63
2023/07/01 07:15:05;;;;;;;4.20;3.80;;;20.40;82.10;;;;;;5021741;28;20040;-63
2023/07/01 07:17:30;;;;;;;3.80;3.50;;;20.40;81.50;;;;;;5021319;28;20064;-63
2023/07/01 07:19:56;;;;;;;3.50;3.20;;;20.50;81.20;;;;;;5027037;28;20033;-62
2023/07/01 07:22:22;;;;;;;5.18;3.60;;;20.60;81.20;;;;;;5014073;28;20049;-63
2023/07/01 07:24:47;;;;;;;3.97;3.58;;;20.60;81.00;;;;;;5025144;28;20041;-63
2023/07/01 07:27:13;;;;;;;3.95;3.55;;;20.70;79.50;;;;;;5019268;28;20716;-63
2023/07/01 07:29:39;;;;;;;3.55;3.25;;;20.70;79.80;;;;;;5014406;28;20038;-63
2023/07/01 07:32:05;;;;;;;3.60;2.90;;;20.80;79.60;;;;;;5022936;28;21177;-64
2023/07/01 07:34:32;;;;;;;3.30;3.00;;;20.80;78.80;;;;;;5023854;28;20124;-64
2023/07/01 07:36:57;;;;;;;4.93;3.65;;;20.80;78.40;;;;;;5024693;28;20029;-62
2023/07/01 07:39:23;;;;;;;3.67;3.20;;;20.90;78.20;;;;;;5023681;28;20035;-63
2023/07/01 07:41:49;;;;;;;3.20;2.90;;;20.90;78.20;;;;;;5024809;28;20029;-64
2023/07/01 07:44:15;;;;;;;3.15;2.88;;;21.10;77.00;;;;;;5025347;28;20033;-63
2023/07/01 07:46:42;;;;;;;3.53;3.22;;;21.10;76.50;;;;;;5023476;28;20527;-63
2023/07/01 07:49:08;;;;;;;5.43;2.95;;;21.10;75.50;;;;;;5027687;28;20037;-63
2023/07/01 07:51:34;;;;;;;3.97;3.38;;;21.10;75.50;;;;;;5031623;28;20029;-64
2023/07/01 07:53:59;;;;;;;3.38;3.08;;;21.10;75.90;;;;;;5016762;28;20040;-63
2023/07/01 07:56:25;;;;;;;3.40;3.10;;;21.10;76.20;;;;;;5001879;28;20044;-61
2023/07/01 07:58:51;;;;;;;4.20;2.80;;;21.20;76.00;;;;;;5022956;28;20120;-62
2023/07/01 08:01:16;;;;;;;3.10;2.80;;;21.20;75.40;;;;;;5015052;28;20049;-63
2023/07/01 08:03:42;;;;;;;7.47;3.40;;;21.20;75.80;;;;;;5009727;28;20521;-63
2023/07/01 08:06:08;;;;;;;3.65;3.35;;;21.20;75.60;;;;;;5016680;28;20214;-63
2023/07/01 08:08:35;;;;;;;4.72;3.22;;;21.20;75.40;;;;;;5017486;28;20036;-63
2023/07/01 08:11:00;;;;;;;3.78;2.70;;;21.20;76.40;;;;;;5023815;28;20036;-63
2023/07/01 08:13:26;;;;;;;3.40;3.10;;;21.30;76.70;;;;;;5030490;28;20029;-63
2023/07/01 08:15:51;;;;;;;4.70;2.80;;;21.20;76.80;;;;;;5028024;28;20296;-63
2023/07/01 08:18:17;;;;;;;3.80;2.97;;;21.30;76.20;;;;;;5029317;28;20053;-63
2023/07/01 08:20:46;;;;;;;4.38;2.53;;;21.30;76.00;;;;;;5021409;28;20037;-63
2023/07/01 08:23:15;;;;;;;3.13;2.60;;;21.40;75.20;;;;;;5027672;28;20050;-63
2023/07/01 08:25:41;;;;;;;3.35;2.55;;;21.50;76.20;;;;;;5031351;28;20044;-63
2023/07/01 08:28:07;;;;;;;3.00;2.70;;;21.50;74.40;;;;;;5030227;28;20056;-64
2023/07/01 08:30:33;;;;;;;3.22;2.20;;;21.60;73.90;;;;;;5029619;28;20029;-63
2023/07/01 08:32:58;;;;;;;3.42;2.58;;;21.70;73.90;;;;;;5026268;28;20489;-63
2023/07/01 08:35:24;;;;;;;2.60;2.40;;;21.70;72.80;;;;;;5025358;28;20037;-63
2023/07/01 08:37:49;;;;;;;3.72;2.50;;;21.80;72.80;;;;;;5031828;28;20037;-63
2023/07/01 08:40:15;;;;;;;2.88;2.67;;;21.80;73.00;;;;;;5036202;28;20045;-61
2023/07/01 08:42:48;;;;;;;3.22;2.60;;;21.90;73.00;;;;;;5036131;28;20037;-62
2023/07/01 08:45:14;;;;;;;3.78;2.60;;;22.00;72.00;;;;;;5035337;28;20033;-64
2023/07/01 08:47:40;;;;;;;3.28;2.97;;;22.00;72.30;;;;;;5036000;28;20029;-64
2023/07/01 08:50:08;;;;;;;3.10;2.90;;;22.10;71.90;;;;;;5035910;28;20033;-63
2023/07/01 08:52:41;;;;;;;4.53;3.17;;;22.10;72.00;;;;;;5034994;28;20034;-63
2023/07/01 08:55:10;;;;;;;2.95;2.67;;;22.10;71.00;;;;;;5035249;28;20505;-63
2023/07/01 08:57:38;;;;;;;2.92;2.60;;;22.20;70.60;;;;;;5034275;28;20131;-63
2023/07/01 09:00:04;;;;;;;3.85;2.53;;;22.30;70.40;;;;;;5035325;28;20045;-63
2023/07/01 09:02:32;;;;;;;4.18;2.30;;;22.30;70.20;;;;;;5033747;28;20037;-63
2023/07/01 09:04:58;;;;;;;2.97;2.67;;;22.30;69.90;;;;;;5035318;28;20036;-64
2023/07/01 09:07:24;;;;;;;3.45;2.53;;;22.40;69.80;;;;;;5036039;28;20525;-62
2023/07/01 09:09:49;;;;;;;2.80;2.60;;;22.40;70.10;;;;;;5036357;28;20064;-63
2023/07/01 09:12:15;;;;;;;2.85;2.33;;;22.40;69.70;;;;;;5031978;28;20402;-63
2023/07/01 09:15:06;;;;;;;2.70;2.42;;;22.40;69.10;;;;;;5035066;28;20037;-63
2023/07/01 09:17:33;;;;;;;2.60;1.75;;;22.50;66.70;;;;;;5036524;28;20044;-63
2023/07/01 09:20:00;;;;;;;3.10;2.00;;;22.50;67.80;;;;;;5035800;28;20025;-63
2023/07/01 09:22:27;;;;;;;2.88;1.90;;;22.60;67.10;;;;;;5030611;28;20564;-63
2023/07/01 09:24:54;;;;;;;3.40;2.00;;;22.70;67.20;;;;;;5030908;28;20042;-64
2023/07/01 09:27:19;;;;;;;2.25;2.05;;;22.70;67.60;;;;;;5033425;28;20025;-63
2023/07/01 09:29:45;;;;;;;2.83;2.63;;;22.80;67.40;;;;;;5032435;28;20100;-64
2023/07/01 09:32:11;;;;;;;3.55;2.50;;;22.90;66.60;;;;;;5031769;28;20369;-62
2023/07/01 09:34:55;;;;;;;2.60;2.40;;;23.00;66.20;;;;;;5033045;28;20510;-64
2023/07/01 09:37:22;;;;;;;2.42;2.20;;;23.00;64.80;;;;;;5036131;28;20041;-64
2023/07/01 09:39:49;;;;;;;4.53;2.45;;;23.00;65.70;;;;;;5034877;28;20029;-63
2023/07/01 09:42:16;;;;;;;2.70;2.50;;;22.90;66.20;;;;;;5034604;28;20051;-63
2023/07/01 09:44:43;;;;;;;2.17;2.00;;;23.00;66.00;;;;;;5035450;28;20025;-63
2023/07/01 09:47:18;;;;;;;4.38;2.60;;;23.00;66.40;;;;;;5029409;28;20444;-63
2023/07/01 09:49:45;;;;;;;3.58;2.60;;;23.10;65.30;;;;;;5033277;28;20760;-63
2023/07/01 09:52:10;;;;;;;2.22;2.10;;;23.20;64.80;;;;;;5034372;28;20029;-63
2023/07/01 09:54:38;;;;;;;2.60;2.33;;;23.20;64.70;;;;;;5031275;28;20041;-64
2023/07/01 09:57:04;;;;;;;2.30;2.05;;;23.40;64.00;;;;;;5033123;28;20513;-63
2023/07/01 09:59:30;;;;;;;4.68;1.95;;;23.40;63.10;;;;;;5033693;28;20049;-63
2023/07/01 10:01:57;;;;;;;2.05;1.67;;;23.50;61.90;;;;;;5029411;28;20033;-63
2023/07/01 10:04:28;;;;;;;2.08;1.88;;;23.50;61.30;;;;;;5035280;28;20047;-63
2023/07/01 10:06:54;;;;;;;3.30;2.10;;;23.60;61.00;;;;;;5037034;28;20655;-64
2023/07/01 10:09:23;;;;;;;3.88;1.95;;;23.60;60.90;;;;;;5036625;28;20496;-64
2023/07/01 10:11:51;;;;;;;3.42;1.83;;;23.70;60.50;;;;;;5032950;28;20604;-64
2023/07/01 10:14:18;;;;;;;2.25;1.70;;;23.80;60.30;;;;;;5036101;28;20461;-64
2023/07/01 10:16:47;;;;;;;1.95;1.80;;;23.80;59.80;;;;;;5036424;28;20451;-63
2023/07/01 10:19:32;;;;;;;3.08;1.98;;;23.90;59.60;;;;;;5036515;28;20041;-62
2023/07/01 10:22:19;;;;;;;1.80;1.70;;;23.90;58.60;;;;;;5035100;28;20486;-63
2023/07/01 10:24:44;;;;;;;2.08;1.95;;;24.00;58.70;;;;;;5032308;28;20047;-63
2023/07/01 10:27:10;;;;;;;2.30;1.83;;;24.10;59.70;;;;;;5036767;28;20505;-63
2023/07/01 10:29:36;;;;;;;3.45;1.92;;;24.10;58.60;;;;;;5032487;28;20094;-63
2023/07/01 10:32:11;;;;;;;2.33;1.90;;;24.20;59.10;;;;;;5032221;28;20128;-64
2023/07/01 10:34:52;;;;;;;;;;;24.30;57.30;;;;;;5034092;28;20041;-63
2023/07/01 10:37:17;;;;;;;2.10;1.98;;;24.40;58.90;;;;;;5032847;28;19913;-64
2023/07/01 10:39:43;;;;;;;1.60;1.50;;;24.40;58.30;;;;;;5034616;28;20144;-64
2023/07/01 10:42:33;;;;;;;2.40;2.20;;;24.40;58.10;;;;;;5034433;28;20398;-63
2023/07/01 10:45:11;;;;;;;2.17;1.85;;;24.40;56.90;;;;;;5032917;28;20497;-64
2023/07/01 10:47:44;;;;;;;2.20;1.83;;;24.60;57.00;;;;;;5034814;28;20456;-64
2023/07/01 10:50:19;;;;;;;2.05;1.90;;;24.40;56.50;;;;;;5028829;28;20037;-64
2023/07/01 10:52:56;;;;;;;2.30;1.60;;;24.40;56.60;;;;;;5033108;28;20087;-63
2023/07/01 10:55:40;;;;;;;1.70;1.60;;;24.40;56.90;;;;;;5034341;28;20477;-63
2023/07/01 10:58:18;;;;;;;4.13;2.17;;;24.40;56.80;;;;;;5033851;28;20083;-64
2023/07/01 11:00:45;;;;;;;2.22;1.73;;;24.40;57.10;;;;;;5031085;28;20037;-64
2023/07/01 11:03:32;;;;;;;2.65;1.95;;;24.40;57.60;;;;;;5034155;28;20034;-64
2023/07/01 11:05:59;;;;;;;2.08;1.70;;;24.40;54.80;;;;;;5032827;28;20046;-64
2023/07/01 11:08:25;;;;;;;1.75;1.65;;;24.40;56.80;;;;;;5026075;28;20029;-64
2023/07/01 11:10:51;;;;;;;3.85;1.90;;;24.40;56.50;;;;;;5035198;28;20113;-63
2023/07/01 11:13:18;;;;;;;4.20;1.90;;;24.40;56.60;;;;;;5035446;28;20223;-64
2023/07/01 11:16:07;;;;;;;2.67;1.85;;;24.40;58.00;;;;;;5035884;28;20037;-64
2023/07/01 11:18:51;;;;;;;2.53;1.88;;;24.50;56.80;;;;;;5033556;28;20026;-63
2023/07/01 11:21:24;;;;;;;4.40;1.83;;;24.60;54.20;;;;;;5031487;28;20067;-64
2023/07/01 11:23:54;;;;;;;1.50;1.40;;;24.60;55.60;;;;;;5030560;28;20073;-63
2023/07/01 11:26:34;;;;;;;2.42;1.60;;;24.60;56.00;;;;;;5028909;28;20398;-64
2023/07/01 11:29:00;;;;;;;1.55;1.42;;;24.70;55.00;;;;;;5031676;28;20037;-64
2023/07/01 11:31:36;;;;;;;2.58;1.30;;;24.70;55.50;;;;;;5030707;28;20045;-63
2023/07/01 11:34:03;;;;;;;2.15;1.60;;;24.90;54.30;;;;;;5029157;28;20037;-63
2023/07/01 11:36:35;;;;;;;1.80;1.67;;;24.80;55.00;;;;;;5029050;28;20070;-63
2023/07/01 11:39:06;;;;;;;1.50;1.40;;;24.80;54.70;;;;;;5032121;28;20558;-62
2023/07/01 11:41:32;;;;;;;2.15;1.52;;;24.90;55.10;;;;;;5020509;28;20045;-62
2023/07/01 11:43:58;;;;;;;1.92;1.73;;;24.90;55.50;;;;;;5030906;28;20508;-63
2023/07/01 11:46:34;;;;;;;1.73;1.60;;;25.00;54.50;;;;;;5027886;28;20052;-63
2023/07/01 11:49:30;;;;;;;3.17;1.40;;;25.00;53.70;;;;;;5027795;28;20057;-63
2023/07/01 11:52:01;;;;;;;2.53;1.50;;;25.10;52.80;;;;;;5024517;28;20318;-63
2023/07/01 11:54:38;;;;;;;3.65;1.52;;;25.20;53.90;;;;;;5036131;28;20099;-62
2023/07/01 11:57:23;;;;;;;1.63;1.50;;;25.20;53.00;;;;;;5036611;28;20038;-63
2023/07/01 11:59:58;;;;;;;4.45;1.48;;;25.30;50.90;;;;;;5036394;28;20076;-63
2023/07/01 12:02:31;;;;;;;2.05;1.67;;;25.40;52.60;;;;;;5038180;28;20151;-63
2023/07/01 12:04:57;;;;;;;2.00;1.33;;;25.40;52.40;;;;;;5038511;28;20580;-61
2023/07/01 12:07:22;;;;;;;2.42;1.50;;;25.50;53.10;;;;;;5037117;28;20045;-63
2023/07/01 12:09:48;;;;;;;1.67;1.40;;;25.50;52.90;;;;;;5038266;28;20116;-62
2023/07/01 12:12:37;;;;;;;2.67;1.45;;;25.50;52.40;;;;;;5031827;28;20037;-63
2023/07/01 12:15:11;;;;;;;2.08;1.20;;;25.60;50.90;;;;;;5036358;28;20021;-61
2023/07/01 12:17:37;;;;;;;2.08;1.20;;;25.60;51.40;;;;;;5036903;28;20080;-63
2023/07/01 12:20:07;;;;;;;3.10;1.42;;;25.60;52.40;;;;;;5035995;28;20032;-63
2023/07/01 12:22:32;;;;;;;2.38;1.58;;;25.60;52.00;;;;;;5035511;28;20072;-63
2023/07/01 12:24:59;;;;;;;2.85;1.67;;;25.60;51.90;;;;;;5035868;28;20060;-64
2023/07/01 12:27:25;;;;;;;1.80;1.65;;;25.60;52.10;;;;;;5035666;28;20025;-63
2023/07/01 12:29:51;;;;;;;1.85;1.50;;;25.70;51.40;;;;;;5035144;28;20176;-63
2023/07/01 12:32:17;;;;;;;1.50;1.23;;;25.70;51.50;;;;;;5034713;28;20233;-63
2023/07/01 12:34:42;;;;;;;1.52;1.42;;;25.70;51.50;;;;;;5036817;28;20029;-63
2023/07/01 12:37:08;;;;;;;1.80;1.33;;;25.90;51.90;;;;;;5036314;28;20036;-62
2023/07/01 12:39:35;;;;;;;3.00;1.55;;;25.90;50.70;;;;;;5034936;28;20044;-63
2023/07/01 12:42:01;;;;;;;1.90;1.60;;;26.00;50.80;;;;;;5034465;28;20513;-63
2023/07/01 12:44:27;;;;;;;3.83;1.52;;;26.00;50.40;;;;;;5035610;28;20048;-63
2023/07/01 12:46:52;;;;;;;3.67;1.60;;;26.00;50.60;;;;;;5034791;28;20021;-63
2023/07/01 12:49:18;;;;;;;3.58;1.73;;;26.00;50.40;;;;;;5035799;28;20119;-63
2023/07/01 12:51:44;;;;;;;1.65;1.45;;;26.00;50.60;;;;;;5036157;28;20037;-63